sensor_id;sensor_type;location;lat;lon;timestamp;P1;durP1;ratioP1;P2;durP2;ratioP2
8050;SDS011;4068;42.158;24.732;2022-10-19T00:00:19;19.80;;;11.30;;
8050;SDS011;4068;42.158;24.732;2022-10-19T00:02:45;21.43;;;10.47;;
8050;SDS011;4068;42.158;24.732;2022-10-19T00:05:10;20.00;;;10.50;;
8050;SDS011;4068;42.158;24.732;2022-10-19T00:07:36;14.27;;;9.97;;
8050;SDS011;4068;42.158;24.732;2022-10-19T00:10:02;18.33;;;10.07;;
8050;SDS011;4068;42.158;24.732;2022-10-19T00:12:28;20.43;;;10.90;;
8050;SDS011;4068;42.158;24.732;2022-10-19T00:14:53;17.87;;;10.27;;
8050;SDS011;4068;42.158;24.732;2022-10-19T00:17:19;18.73;;;10.20;;
8050;SDS011;4068;42.158;24.732;2022-10-19T00:19:44;13.73;;;9.57;;
8050;SDS011;4068;42.158;24.732;2022-10-19T00:22:09;18.13;;;10.40;;
8050;SDS011;4068;42.158;24.732;2022-10-19T00:24:35;16.20;;;9.53;;
8050;SDS011;4068;42.158;24.732;2022-10-19T00:27:00;14.03;;;9.90;;
8050;SDS011;4068;42.158;24.732;2022-10-19T00:29:25;15.83;;;9.67;;
8050;SDS011;4068;42.158;24.732;2022-10-19T00:31:51;16.33;;;8.77;;
8050;SDS011;4068;42.158;24.732;2022-10-19T00:34:17;15.40;;;8.83;;
8050;SDS011;4068;42.158;24.732;2022-10-19T00:36:42;14.20;;;8.57;;
8050;SDS011;4068;42.158;24.732;2022-10-19T00:39:12;11.10;;;7.70;;
8050;SDS011;4068;42.158;24.732;2022-10-19T00:41:40;15.83;;;8.17;;
8050;SDS011;4068;42.158;24.732;2022-10-19T00:44:56;12.10;;;7.07;;
8050;SDS011;4068;42.158;24.732;2022-10-19T00:46:58;14.23;;;7.20;;
8050;SDS011;4068;42.158;24.732;2022-10-19T00:49:27;9.73;;;7.00;;
8050;SDS011;4068;42.158;24.732;2022-10-19T00:51:58;11.77;;;8.00;;
8050;SDS011;4068;42.158;24.732;2022-10-19T00:54:27;11.30;;;7.30;;
8050;SDS011;4068;42.158;24.732;2022-10-19T00:56:54;12.13;;;7.47;;
8050;SDS011;4068;42.158;24.732;2022-10-19T00:59:21;11.33;;;7.67;;
8050;SDS011;4068;42.158;24.732;2022-10-19T01:01:49;10.23;;;7.00;;
8050;SDS011;4068;42.158;24.732;2022-10-19T01:04:16;11.83;;;7.53;;
8050;SDS011;4068;42.158;24.732;2022-10-19T01:06:44;13.80;;;8.17;;
8050;SDS011;4068;42.158;24.732;2022-10-19T01:09:09;13.00;;;7.40;;
8050;SDS011;4068;42.158;24.732;2022-10-19T01:34:14;14.73;;;7.20;;
8050;SDS011;4068;42.158;24.732;2022-10-19T01:37:04;10.87;;;7.93;;
8050;SDS011;4068;42.158;24.732;2022-10-19T01:39:42;10.03;;;6.37;;
8050;SDS011;4068;42.158;24.732;2022-10-19T01:45:01;12.17;;;7.70;;
8050;SDS011;4068;42.158;24.732;2022-10-19T01:47:43;10.00;;;7.40;;
8050;SDS011;4068;42.158;24.732;2022-10-19T01:50:20;12.10;;;7.67;;
8050;SDS011;4068;42.158;24.732;2022-10-19T01:52:52;10.23;;;7.13;;
8050;SDS011;4068;42.158;24.732;2022-10-19T01:55:19;29.27;;;7.97;;
8050;SDS011;4068;42.158;24.732;2022-10-19T01:57:52;12.53;;;7.43;;
8050;SDS011;4068;42.158;24.732;2022-10-19T02:00:28;11.90;;;7.70;;
8050;SDS011;4068;42.158;24.732;2022-10-19T02:02:55;13.37;;;7.53;;
8050;SDS011;4068;42.158;24.732;2022-10-19T02:05:26;13.30;;;7.73;;
8050;SDS011;4068;42.158;24.732;2022-10-19T02:08:00;12.30;;;8.23;;
8050;SDS011;4068;42.158;24.732;2022-10-19T02:10:30;13.90;;;7.60;;
8050;SDS011;4068;42.158;24.732;2022-10-19T02:12:59;12.73;;;8.40;;
8050;SDS011;4068;42.158;24.732;2022-10-19T02:15:26;10.83;;;7.60;;
8050;SDS011;4068;42.158;24.732;2022-10-19T02:17:56;16.13;;;7.50;;
8050;SDS011;4068;42.158;24.732;2022-10-19T02:20:23;13.17;;;7.33;;
8050;SDS011;4068;42.158;24.732;2022-10-19T02:22:51;10.77;;;8.17;;
8050;SDS011;4068;42.158;24.732;2022-10-19T02:25:16;12.43;;;7.70;;
8050;SDS011;4068;42.158;24.732;2022-10-19T02:27:42;12.57;;;7.37;;
8050;SDS011;4068;42.158;24.732;2022-10-19T02:30:09;9.87;;;7.13;;
8050;SDS011;4068;42.158;24.732;2022-10-19T02:32:37;17.03;;;8.03;;
8050;SDS011;4068;42.158;24.732;2022-10-19T02:35:03;13.37;;;8.07;;
8050;SDS011;4068;42.158;24.732;2022-10-19T02:37:29;14.60;;;7.97;;
8050;SDS011;4068;42.158;24.732;2022-10-19T02:39:54;10.87;;;7.87;;
8050;SDS011;4068;42.158;24.732;2022-10-19T02:42:27;14.80;;;8.27;;
8050;SDS011;4068;42.158;24.732;2022-10-19T02:47:26;9.30;;;7.23;;
8050;SDS011;4068;42.158;24.732;2022-10-19T02:50:12;13.13;;;7.47;;
8050;SDS011;4068;42.158;24.732;2022-10-19T02:52:39;14.70;;;7.57;;
8050;SDS011;4068;42.158;24.732;2022-10-19T02:55:05;10.40;;;7.60;;
8050;SDS011;4068;42.158;24.732;2022-10-19T02:57:31;12.30;;;7.90;;
8050;SDS011;4068;42.158;24.732;2022-10-19T02:59:57;20.83;;;7.93;;
8050;SDS011;4068;42.158;24.732;2022-10-19T03:02:23;12.57;;;7.03;;
8050;SDS011;4068;42.158;24.732;2022-10-19T03:04:49;15.23;;;8.00;;
8050;SDS011;4068;42.158;24.732;2022-10-19T03:07:15;12.43;;;7.57;;
8050;SDS011;4068;42.158;24.732;2022-10-19T03:09:42;18.37;;;7.93;;
8050;SDS011;4068;42.158;24.732;2022-10-19T03:12:08;13.13;;;8.20;;
8050;SDS011;4068;42.158;24.732;2022-10-19T03:14:34;12.70;;;7.90;;
8050;SDS011;4068;42.158;24.732;2022-10-19T03:17:00;12.57;;;7.57;;
8050;SDS011;4068;42.158;24.732;2022-10-19T03:19:26;13.27;;;7.53;;
8050;SDS011;4068;42.158;24.732;2022-10-19T03:21:51;11.27;;;7.43;;
8050;SDS011;4068;42.158;24.732;2022-10-19T03:24:16;9.37;;;6.97;;
8050;SDS011;4068;42.158;24.732;2022-10-19T03:26:42;10.80;;;7.57;;
8050;SDS011;4068;42.158;24.732;2022-10-19T03:29:07;11.17;;;7.23;;
8050;SDS011;4068;42.158;24.732;2022-10-19T03:31:33;14.30;;;7.80;;
8050;SDS011;4068;42.158;24.732;2022-10-19T03:33:59;16.87;;;8.67;;
8050;SDS011;4068;42.158;24.732;2022-10-19T03:36:25;11.53;;;7.73;;
8050;SDS011;4068;42.158;24.732;2022-10-19T03:38:56;17.80;;;7.90;;
8050;SDS011;4068;42.158;24.732;2022-10-19T03:41:24;16.23;;;8.47;;
8050;SDS011;4068;42.158;24.732;2022-10-19T03:43:51;12.33;;;8.53;;
8050;SDS011;4068;42.158;24.732;2022-10-19T03:46:16;12.60;;;8.37;;
8050;SDS011;4068;42.158;24.732;2022-10-19T03:48:42;12.37;;;7.53;;
8050;SDS011;4068;42.158;24.732;2022-10-19T03:51:18;14.13;;;8.27;;
8050;SDS011;4068;42.158;24.732;2022-10-19T03:53:47;11.73;;;8.30;;
8050;SDS011;4068;42.158;24.732;2022-10-19T03:56:16;19.30;;;8.50;;
8050;SDS011;4068;42.158;24.732;2022-10-19T03:58:44;18.13;;;8.83;;
8050;SDS011;4068;42.158;24.732;2022-10-19T04:01:13;13.13;;;7.97;;
8050;SDS011;4068;42.158;24.732;2022-10-19T04:03:40;16.20;;;8.77;;
8050;SDS011;4068;42.158;24.732;2022-10-19T04:06:15;17.23;;;8.70;;
8050;SDS011;4068;42.158;24.732;2022-10-19T04:08:42;14.10;;;7.60;;
8050;SDS011;4068;42.158;24.732;2022-10-19T04:11:10;15.87;;;8.30;;
8050;SDS011;4068;42.158;24.732;2022-10-19T04:13:37;16.63;;;8.03;;
8050;SDS011;4068;42.158;24.732;2022-10-19T04:16:03;18.83;;;8.93;;
8050;SDS011;4068;42.158;24.732;2022-10-19T04:18:29;15.57;;;8.10;;
8050;SDS011;4068;42.158;24.732;2022-10-19T04:20:58;15.27;;;8.30;;
8050;SDS011;4068;42.158;24.732;2022-10-19T04:23:26;17.20;;;8.03;;
8050;SDS011;4068;42.158;24.732;2022-10-19T04:26:02;16.30;;;8.33;;
8050;SDS011;4068;42.158;24.732;2022-10-19T04:28:30;17.00;;;9.33;;
8050;SDS011;4068;42.158;24.732;2022-10-19T04:30:55;13.93;;;8.63;;
8050;SDS011;4068;42.158;24.732;2022-10-19T04:33:21;13.37;;;8.47;;
8050;SDS011;4068;42.158;24.732;2022-10-19T04:35:46;15.70;;;8.80;;
8050;SDS011;4068;42.158;24.732;2022-10-19T04:38:12;13.43;;;8.80;;
8050;SDS011;4068;42.158;24.732;2022-10-19T04:40:37;19.07;;;9.33;;
8050;SDS011;4068;42.158;24.732;2022-10-19T04:43:03;11.43;;;7.87;;
8050;SDS011;4068;42.158;24.732;2022-10-19T04:45:29;16.20;;;8.67;;
8050;SDS011;4068;42.158;24.732;2022-10-19T04:47:55;15.93;;;8.57;;
8050;SDS011;4068;42.158;24.732;2022-10-19T04:50:21;16.20;;;8.13;;
8050;SDS011;4068;42.158;24.732;2022-10-19T04:52:47;14.23;;;8.67;;
8050;SDS011;4068;42.158;24.732;2022-10-19T04:55:13;19.33;;;9.10;;
8050;SDS011;4068;42.158;24.732;2022-10-19T04:57:38;16.43;;;9.27;;
8050;SDS011;4068;42.158;24.732;2022-10-19T05:00:04;20.67;;;9.83;;
8050;SDS011;4068;42.158;24.732;2022-10-19T05:02:30;18.57;;;9.13;;
8050;SDS011;4068;42.158;24.732;2022-10-19T05:04:55;16.87;;;9.27;;
8050;SDS011;4068;42.158;24.732;2022-10-19T05:07:21;23.33;;;9.93;;
8050;SDS011;4068;42.158;24.732;2022-10-19T05:09:46;16.73;;;8.57;;
8050;SDS011;4068;42.158;24.732;2022-10-19T05:12:11;18.10;;;8.80;;
8050;SDS011;4068;42.158;24.732;2022-10-19T05:14:37;15.13;;;8.67;;
8050;SDS011;4068;42.158;24.732;2022-10-19T05:17:02;15.30;;;8.37;;
8050;SDS011;4068;42.158;24.732;2022-10-19T05:19:28;12.80;;;7.47;;
8050;SDS011;4068;42.158;24.732;2022-10-19T05:21:53;11.80;;;8.17;;
8050;SDS011;4068;42.158;24.732;2022-10-19T05:24:18;15.40;;;9.10;;
8050;SDS011;4068;42.158;24.732;2022-10-19T05:26:44;17.73;;;9.47;;
8050;SDS011;4068;42.158;24.732;2022-10-19T05:29:10;18.03;;;8.47;;
8050;SDS011;4068;42.158;24.732;2022-10-19T05:31:37;15.43;;;8.10;;
8050;SDS011;4068;42.158;24.732;2022-10-19T05:34:03;24.50;;;9.60;;
8050;SDS011;4068;42.158;24.732;2022-10-19T05:36:30;18.30;;;8.53;;
8050;SDS011;4068;42.158;24.732;2022-10-19T05:38:59;19.70;;;8.77;;
8050;SDS011;4068;42.158;24.732;2022-10-19T05:41:26;31.07;;;9.10;;
8050;SDS011;4068;42.158;24.732;2022-10-19T05:43:53;16.63;;;8.93;;
8050;SDS011;4068;42.158;24.732;2022-10-19T05:46:20;17.70;;;8.67;;
8050;SDS011;4068;42.158;24.732;2022-10-19T05:48:46;10.77;;;8.40;;
8050;SDS011;4068;42.158;24.732;2022-10-19T05:51:13;20.03;;;8.47;;
8050;SDS011;4068;42.158;24.732;2022-10-19T05:53:40;13.03;;;8.10;;
8050;SDS011;4068;42.158;24.732;2022-10-19T05:56:06;16.73;;;7.43;;
8050;SDS011;4068;42.158;24.732;2022-10-19T05:58:33;12.20;;;8.13;;
8050;SDS011;4068;42.158;24.732;2022-10-19T06:01:00;17.13;;;9.37;;
8050;SDS011;4068;42.158;24.732;2022-10-19T06:03:26;20.50;;;9.93;;
8050;SDS011;4068;42.158;24.732;2022-10-19T06:05:53;19.20;;;8.47;;
8050;SDS011;4068;42.158;24.732;2022-10-19T06:08:19;16.63;;;9.13;;
8050;SDS011;4068;42.158;24.732;2022-10-19T06:10:46;15.17;;;8.73;;
8050;SDS011;4068;42.158;24.732;2022-10-19T06:13:12;16.53;;;8.57;;
8050;SDS011;4068;42.158;24.732;2022-10-19T06:15:39;16.63;;;9.90;;
8050;SDS011;4068;42.158;24.732;2022-10-19T06:18:09;25.50;;;9.57;;
8050;SDS011;4068;42.158;24.732;2022-10-19T06:20:39;15.70;;;9.55;;
8050;SDS011;4068;42.158;24.732;2022-10-19T06:23:06;15.13;;;8.73;;
8050;SDS011;4068;42.158;24.732;2022-10-19T06:25:33;14.98;;;8.80;;
8050;SDS011;4068;42.158;24.732;2022-10-19T06:28:01;13.67;;;6.97;;
8050;SDS011;4068;42.158;24.732;2022-10-19T06:30:27;18.25;;;7.80;;
8050;SDS011;4068;42.158;24.732;2022-10-19T06:32:52;21.70;;;8.23;;
8050;SDS011;4068;42.158;24.732;2022-10-19T06:35:18;18.33;;;7.70;;
8050;SDS011;4068;42.158;24.732;2022-10-19T06:37:43;26.55;;;7.72;;
8050;SDS011;4068;42.158;24.732;2022-10-19T06:40:09;23.40;;;8.18;;
8050;SDS011;4068;42.158;24.732;2022-10-19T06:42:35;35.95;;;8.60;;
8050;SDS011;4068;42.158;24.732;2022-10-19T06:45:07;12.75;;;7.80;;
8050;SDS011;4068;42.158;24.732;2022-10-19T06:47:34;23.70;;;7.13;;
8050;SDS011;4068;42.158;24.732;2022-10-19T06:50:00;15.07;;;6.57;;
8050;SDS011;4068;42.158;24.732;2022-10-19T06:52:31;18.10;;;6.78;;
8050;SDS011;4068;42.158;24.732;2022-10-19T06:54:57;12.18;;;6.40;;
8050;SDS011;4068;42.158;24.732;2022-10-19T06:57:22;13.35;;;6.80;;
8050;SDS011;4068;42.158;24.732;2022-10-19T06:59:48;19.00;;;6.40;;
8050;SDS011;4068;42.158;24.732;2022-10-19T07:02:13;15.95;;;7.50;;
8050;SDS011;4068;42.158;24.732;2022-10-19T07:04:39;17.05;;;7.40;;
8050;SDS011;4068;42.158;24.732;2022-10-19T07:07:05;16.95;;;7.40;;
8050;SDS011;4068;42.158;24.732;2022-10-19T07:09:31;21.60;;;8.27;;
8050;SDS011;4068;42.158;24.732;2022-10-19T07:11:57;19.83;;;7.22;;
8050;SDS011;4068;42.158;24.732;2022-10-19T07:14:22;17.65;;;7.95;;
8050;SDS011;4068;42.158;24.732;2022-10-19T07:16:52;9.85;;;7.35;;
8050;SDS011;4068;42.158;24.732;2022-10-19T07:19:19;16.83;;;7.82;;
8050;SDS011;4068;42.158;24.732;2022-10-19T07:21:45;21.13;;;7.88;;
8050;SDS011;4068;42.158;24.732;2022-10-19T07:24:14;17.77;;;9.23;;
8050;SDS011;4068;42.158;24.732;2022-10-19T07:26:39;22.05;;;9.18;;
8050;SDS011;4068;42.158;24.732;2022-10-19T07:29:05;19.30;;;8.90;;
8050;SDS011;4068;42.158;24.732;2022-10-19T07:31:30;14.65;;;7.30;;
8050;SDS011;4068;42.158;24.732;2022-10-19T07:33:57;12.63;;;7.43;;
8050;SDS011;4068;42.158;24.732;2022-10-19T07:36:24;12.27;;;7.65;;
8050;SDS011;4068;42.158;24.732;2022-10-19T07:38:50;16.20;;;7.85;;
8050;SDS011;4068;42.158;24.732;2022-10-19T07:41:17;15.73;;;6.85;;
8050;SDS011;4068;42.158;24.732;2022-10-19T07:43:45;13.75;;;8.73;;
8050;SDS011;4068;42.158;24.732;2022-10-19T07:46:15;17.67;;;7.72;;
8050;SDS011;4068;42.158;24.732;2022-10-19T07:48:43;12.15;;;7.20;;
8050;SDS011;4068;42.158;24.732;2022-10-19T07:51:09;15.73;;;7.28;;
8050;SDS011;4068;42.158;24.732;2022-10-19T07:53:37;15.57;;;7.63;;
8050;SDS011;4068;42.158;24.732;2022-10-19T07:56:04;19.10;;;7.60;;
8050;SDS011;4068;42.158;24.732;2022-10-19T07:58:31;20.17;;;8.02;;
8050;SDS011;4068;42.158;24.732;2022-10-19T08:01:02;23.17;;;8.15;;
8050;SDS011;4068;42.158;24.732;2022-10-19T08:03:29;17.80;;;8.93;;
8050;SDS011;4068;42.158;24.732;2022-10-19T08:06:01;16.77;;;8.25;;
8050;SDS011;4068;42.158;24.732;2022-10-19T08:08:28;18.70;;;7.95;;
8050;SDS011;4068;42.158;24.732;2022-10-19T08:10:54;24.42;;;8.45;;
8050;SDS011;4068;42.158;24.732;2022-10-19T08:13:20;11.27;;;7.65;;
8050;SDS011;4068;42.158;24.732;2022-10-19T08:15:45;13.98;;;7.05;;
8050;SDS011;4068;42.158;24.732;2022-10-19T08:18:11;10.40;;;6.78;;
8050;SDS011;4068;42.158;24.732;2022-10-19T08:20:39;14.45;;;7.20;;
8050;SDS011;4068;42.158;24.732;2022-10-19T08:23:05;16.38;;;7.38;;
8050;SDS011;4068;42.158;24.732;2022-10-19T08:25:30;13.23;;;6.35;;
8050;SDS011;4068;42.158;24.732;2022-10-19T08:27:56;12.48;;;7.00;;
8050;SDS011;4068;42.158;24.732;2022-10-19T08:30:21;17.92;;;7.13;;
8050;SDS011;4068;42.158;24.732;2022-10-19T08:32:47;11.23;;;6.55;;
8050;SDS011;4068;42.158;24.732;2022-10-19T08:35:12;14.80;;;8.27;;
8050;SDS011;4068;42.158;24.732;2022-10-19T08:37:38;14.70;;;6.28;;
8050;SDS011;4068;42.158;24.732;2022-10-19T08:40:03;15.80;;;6.32;;
8050;SDS011;4068;42.158;24.732;2022-10-19T08:42:38;26.25;;;8.98;;
8050;SDS011;4068;42.158;24.732;2022-10-19T08:45:20;30.17;;;9.50;;
8050;SDS011;4068;42.158;24.732;2022-10-19T08:48:09;11.85;;;8.07;;
8050;SDS011;4068;42.158;24.732;2022-10-19T08:50:43;8.85;;;5.50;;
8050;SDS011;4068;42.158;24.732;2022-10-19T08:53:17;12.68;;;6.22;;
8050;SDS011;4068;42.158;24.732;2022-10-19T09:04:01;14.48;;;6.80;;
8050;SDS011;4068;42.158;24.732;2022-10-19T09:06:35;16.50;;;6.70;;
8050;SDS011;4068;42.158;24.732;2022-10-19T09:09:08;15.40;;;6.40;;
8050;SDS011;4068;42.158;24.732;2022-10-19T09:11:37;11.25;;;6.55;;
8050;SDS011;4068;42.158;24.732;2022-10-19T09:16:45;14.73;;;6.70;;
8050;SDS011;4068;42.158;24.732;2022-10-19T09:19:20;14.43;;;6.25;;
8050;SDS011;4068;42.158;24.732;2022-10-19T09:22:25;17.05;;;6.78;;
8050;SDS011;4068;42.158;24.732;2022-10-19T09:24:50;11.77;;;6.25;;
8050;SDS011;4068;42.158;24.732;2022-10-19T09:27:31;13.40;;;6.53;;
8050;SDS011;4068;42.158;24.732;2022-10-19T09:30:16;11.35;;;6.95;;
8050;SDS011;4068;42.158;24.732;2022-10-19T09:32:45;12.38;;;5.72;;
8050;SDS011;4068;42.158;24.732;2022-10-19T09:37:42;11.00;;;6.53;;
8050;SDS011;4068;42.158;24.732;2022-10-19T09:40:19;8.73;;;6.38;;
8050;SDS011;4068;42.158;24.732;2022-10-19T09:42:49;12.10;;;5.97;;
8050;SDS011;4068;42.158;24.732;2022-10-19T09:45:38;12.80;;;5.97;;
8050;SDS011;4068;42.158;24.732;2022-10-19T09:48:11;8.18;;;5.55;;
8050;SDS011;4068;42.158;24.732;2022-10-19T09:50:42;9.05;;;5.50;;
8050;SDS011;4068;42.158;24.732;2022-10-19T09:53:14;9.05;;;5.50;;
8050;SDS011;4068;42.158;24.732;2022-10-19T09:55:57;7.90;;;5.10;;
8050;SDS011;4068;42.158;24.732;2022-10-19T09:58:23;14.32;;;6.00;;
8050;SDS011;4068;42.158;24.732;2022-10-19T10:00:51;8.98;;;5.75;;
8050;SDS011;4068;42.158;24.732;2022-10-19T10:03:23;7.90;;;5.07;;
8050;SDS011;4068;42.158;24.732;2022-10-19T10:08:44;13.43;;;5.50;;
8050;SDS011;4068;42.158;24.732;2022-10-19T10:11:25;6.25;;;4.93;;
8050;SDS011;4068;42.158;24.732;2022-10-19T10:13:53;7.70;;;4.90;;
8050;SDS011;4068;42.158;24.732;2022-10-19T10:16:21;8.25;;;5.13;;
8050;SDS011;4068;42.158;24.732;2022-10-19T10:18:59;8.30;;;5.13;;
8050;SDS011;4068;42.158;24.732;2022-10-19T10:21:28;10.02;;;5.90;;
8050;SDS011;4068;42.158;24.732;2022-10-19T10:24:02;11.43;;;6.10;;
8050;SDS011;4068;42.158;24.732;2022-10-19T10:26:29;13.90;;;4.97;;
8050;SDS011;4068;42.158;24.732;2022-10-19T10:28:55;6.82;;;4.90;;
8050;SDS011;4068;42.158;24.732;2022-10-19T10:31:21;13.52;;;5.50;;
8050;SDS011;4068;42.158;24.732;2022-10-19T10:33:57;10.85;;;4.88;;
8050;SDS011;4068;42.158;24.732;2022-10-19T10:36:28;13.27;;;5.57;;
8050;SDS011;4068;42.158;24.732;2022-10-19T10:39:04;14.48;;;5.68;;
8050;SDS011;4068;42.158;24.732;2022-10-19T10:41:36;7.72;;;5.15;;
8050;SDS011;4068;42.158;24.732;2022-10-19T10:44:08;6.60;;;5.10;;
8050;SDS011;4068;42.158;24.732;2022-10-19T10:46:53;13.55;;;5.63;;
8050;SDS011;4068;42.158;24.732;2022-10-19T10:52:21;16.63;;;5.50;;
8050;SDS011;4068;42.158;24.732;2022-10-19T10:55:01;7.05;;;4.93;;
8050;SDS011;4068;42.158;24.732;2022-10-19T10:57:35;6.55;;;4.65;;
8050;SDS011;4068;42.158;24.732;2022-10-19T11:08:34;8.52;;;4.35;;
8050;SDS011;4068;42.158;24.732;2022-10-19T11:11:05;10.27;;;5.22;;
8050;SDS011;4068;42.158;24.732;2022-10-19T11:16:37;5.28;;;3.80;;
8050;SDS011;4068;42.158;24.732;2022-10-19T11:30:29;8.75;;;3.92;;
8050;SDS011;4068;42.158;24.732;2022-10-19T11:33:17;9.85;;;3.50;;
8050;SDS011;4068;42.158;24.732;2022-10-19T11:35:53;4.95;;;3.80;;
8050;SDS011;4068;42.158;24.732;2022-10-19T11:52:34;4.88;;;3.55;;
8050;SDS011;4068;42.158;24.732;2022-10-19T12:06:25;7.95;;;3.80;;
8050;SDS011;4068;42.158;24.732;2022-10-19T12:11:56;13.25;;;4.40;;
8050;SDS011;4068;42.158;24.732;2022-10-19T12:14:32;10.23;;;3.90;;
8050;SDS011;4068;42.158;24.732;2022-10-19T12:17:04;6.82;;;3.88;;
8050;SDS011;4068;42.158;24.732;2022-10-19T12:19:37;9.68;;;3.80;;
8050;SDS011;4068;42.158;24.732;2022-10-19T12:22:12;7.28;;;4.40;;
8050;SDS011;4068;42.158;24.732;2022-10-19T12:24:41;5.57;;;3.80;;
8050;SDS011;4068;42.158;24.732;2022-10-19T12:27:09;12.73;;;3.88;;
8050;SDS011;4068;42.158;24.732;2022-10-19T12:29:39;11.55;;;4.80;;
8050;SDS011;4068;42.158;24.732;2022-10-19T12:32:08;6.57;;;3.90;;
8050;SDS011;4068;42.158;24.732;2022-10-19T12:45:38;9.52;;;3.60;;
8050;SDS011;4068;42.158;24.732;2022-10-19T12:58:35;9.60;;;3.90;;
8050;SDS011;4068;42.158;24.732;2022-10-19T13:03:45;6.07;;;3.70;;
8050;SDS011;4068;42.158;24.732;2022-10-19T13:06:15;5.35;;;3.83;;
8050;SDS011;4068;42.158;24.732;2022-10-19T13:08:55;9.27;;;3.85;;
8050;SDS011;4068;42.158;24.732;2022-10-19T13:11:23;8.90;;;3.33;;
8050;SDS011;4068;42.158;24.732;2022-10-19T13:13:53;5.22;;;3.80;;
8050;SDS011;4068;42.158;24.732;2022-10-19T13:21:42;10.88;;;4.75;;
8050;SDS011;4068;42.158;24.732;2022-10-19T13:41:26;12.95;;;4.53;;
8050;SDS011;4068;42.158;24.732;2022-10-19T13:43:34;7.68;;;4.20;;
8050;SDS011;4068;42.158;24.732;2022-10-19T14:11:03;5.60;;;3.88;;
8050;SDS011;4068;42.158;24.732;2022-10-19T14:13:31;10.20;;;4.15;;
8050;SDS011;4068;42.158;24.732;2022-10-19T14:15:57;8.82;;;3.80;;
8050;SDS011;4068;42.158;24.732;2022-10-19T14:18:30;6.68;;;4.40;;
8050;SDS011;4068;42.158;24.732;2022-10-19T14:20:58;10.18;;;3.67;;
8050;SDS011;4068;42.158;24.732;2022-10-19T14:23:26;7.40;;;3.45;;
8050;SDS011;4068;42.158;24.732;2022-10-19T14:25:54;4.95;;;3.70;;
8050;SDS011;4068;42.158;24.732;2022-10-19T14:28:25;6.55;;;3.95;;
8050;SDS011;4068;42.158;24.732;2022-10-19T14:33:23;6.13;;;3.63;;
8050;SDS011;4068;42.158;24.732;2022-10-19T14:35:50;14.27;;;5.03;;
8050;SDS011;4068;42.158;24.732;2022-10-19T14:38:28;7.03;;;3.50;;
8050;SDS011;4068;42.158;24.732;2022-10-19T14:40:59;9.18;;;4.40;;
8050;SDS011;4068;42.158;24.732;2022-10-19T14:43:29;13.43;;;4.30;;
8050;SDS011;4068;42.158;24.732;2022-10-19T14:48:31;10.90;;;4.38;;
8050;SDS011;4068;42.158;24.732;2022-10-19T14:51:00;7.97;;;4.72;;
8050;SDS011;4068;42.158;24.732;2022-10-19T14:59:23;11.13;;;4.93;;
8050;SDS011;4068;42.158;24.732;2022-10-19T15:01:56;7.80;;;4.20;;
8050;SDS011;4068;42.158;24.732;2022-10-19T15:04:31;4.90;;;4.15;;
8050;SDS011;4068;42.158;24.732;2022-10-19T15:07:01;10.88;;;6.70;;
8050;SDS011;4068;42.158;24.732;2022-10-19T15:09:38;15.35;;;7.03;;
8050;SDS011;4068;42.158;24.732;2022-10-19T15:12:13;20.73;;;8.40;;
8050;SDS011;4068;42.158;24.732;2022-10-19T15:14:42;17.67;;;7.30;;
8050;SDS011;4068;42.158;24.732;2022-10-19T15:17:28;21.60;;;8.85;;
8050;SDS011;4068;42.158;24.732;2022-10-19T15:19:56;17.38;;;6.32;;
8050;SDS011;4068;42.158;24.732;2022-10-19T15:27:21;20.33;;;7.03;;
8050;SDS011;4068;42.158;24.732;2022-10-19T15:32:22;14.15;;;5.95;;
8050;SDS011;4068;42.158;24.732;2022-10-19T15:34:48;14.85;;;6.22;;
8050;SDS011;4068;42.158;24.732;2022-10-19T15:37:19;12.05;;;6.85;;
8050;SDS011;4068;42.158;24.732;2022-10-19T15:39:46;17.75;;;7.63;;
8050;SDS011;4068;42.158;24.732;2022-10-19T15:42:22;19.63;;;7.13;;
8050;SDS011;4068;42.158;24.732;2022-10-19T15:44:56;23.17;;;8.45;;
8050;SDS011;4068;42.158;24.732;2022-10-19T15:47:22;15.40;;;7.28;;
8050;SDS011;4068;42.158;24.732;2022-10-19T15:52:28;19.83;;;7.95;;
8050;SDS011;4068;42.158;24.732;2022-10-19T15:54:57;16.50;;;8.52;;
8050;SDS011;4068;42.158;24.732;2022-10-19T15:57:34;17.80;;;8.18;;
8050;SDS011;4068;42.158;24.732;2022-10-19T16:00:05;21.00;;;8.20;;
8050;SDS011;4068;42.158;24.732;2022-10-19T16:02:36;17.83;;;7.85;;
8050;SDS011;4068;42.158;24.732;2022-10-19T16:05:03;27.23;;;9.52;;
8050;SDS011;4068;42.158;24.732;2022-10-19T16:07:30;36.75;;;10.90;;
8050;SDS011;4068;42.158;24.732;2022-10-19T16:10:00;24.52;;;12.90;;
8050;SDS011;4068;42.158;24.732;2022-10-19T16:12:25;22.48;;;11.00;;
8050;SDS011;4068;42.158;24.732;2022-10-19T16:14:51;22.35;;;10.73;;
8050;SDS011;4068;42.158;24.732;2022-10-19T16:17:17;30.30;;;12.35;;
8050;SDS011;4068;42.158;24.732;2022-10-19T16:19:43;20.02;;;8.52;;
8050;SDS011;4068;42.158;24.732;2022-10-19T16:22:09;46.60;;;13.85;;
8050;SDS011;4068;42.158;24.732;2022-10-19T16:24:36;42.35;;;14.45;;
8050;SDS011;4068;42.158;24.732;2022-10-19T16:27:02;39.17;;;13.90;;
8050;SDS011;4068;42.158;24.732;2022-10-19T16:29:27;35.10;;;13.85;;
8050;SDS011;4068;42.158;24.732;2022-10-19T16:31:53;49.97;;;15.98;;
8050;SDS011;4068;42.158;24.732;2022-10-19T16:34:18;36.55;;;13.95;;
8050;SDS011;4068;42.158;24.732;2022-10-19T16:36:44;46.38;;;15.90;;
8050;SDS011;4068;42.158;24.732;2022-10-19T16:39:09;49.67;;;15.43;;
8050;SDS011;4068;42.158;24.732;2022-10-19T16:41:35;36.03;;;13.48;;
8050;SDS011;4068;42.158;24.732;2022-10-19T16:44:00;45.58;;;16.40;;
8050;SDS011;4068;42.158;24.732;2022-10-19T16:46:25;51.70;;;16.88;;
8050;SDS011;4068;42.158;24.732;2022-10-19T16:48:51;40.05;;;13.35;;
8050;SDS011;4068;42.158;24.732;2022-10-19T16:51:32;38.30;;;17.75;;
8050;SDS011;4068;42.158;24.732;2022-10-19T16:54:00;135.77;;;61.47;;
8050;SDS011;4068;42.158;24.732;2022-10-19T16:56:26;129.90;;;65.93;;
8050;SDS011;4068;42.158;24.732;2022-10-19T16:58:53;162.88;;;74.03;;
8050;SDS011;4068;42.158;24.732;2022-10-19T17:01:19;133.75;;;67.03;;
8050;SDS011;4068;42.158;24.732;2022-10-19T17:03:45;82.88;;;41.10;;
8050;SDS011;4068;42.158;24.732;2022-10-19T17:06:12;58.95;;;30.40;;
8050;SDS011;4068;42.158;24.732;2022-10-19T17:08:39;34.67;;;18.15;;
8050;SDS011;4068;42.158;24.732;2022-10-19T17:11:11;68.15;;;32.40;;
8050;SDS011;4068;42.158;24.732;2022-10-19T17:13:45;78.18;;;34.03;;
8050;SDS011;4068;42.158;24.732;2022-10-19T17:16:12;77.70;;;33.20;;
8050;SDS011;4068;42.158;24.732;2022-10-19T17:18:39;75.72;;;36.08;;
8050;SDS011;4068;42.158;24.732;2022-10-19T17:21:08;67.05;;;30.85;;
8050;SDS011;4068;42.158;24.732;2022-10-19T17:23:35;155.38;;;71.43;;
8050;SDS011;4068;42.158;24.732;2022-10-19T17:26:01;149.20;;;69.75;;
8050;SDS011;4068;42.158;24.732;2022-10-19T17:28:27;151.55;;;66.78;;
8050;SDS011;4068;42.158;24.732;2022-10-19T17:30:52;105.93;;;50.03;;
8050;SDS011;4068;42.158;24.732;2022-10-19T17:33:19;115.95;;;49.70;;
8050;SDS011;4068;42.158;24.732;2022-10-19T17:35:45;107.22;;;51.17;;
8050;SDS011;4068;42.158;24.732;2022-10-19T17:38:10;119.05;;;52.15;;
8050;SDS011;4068;42.158;24.732;2022-10-19T17:40:35;111.35;;;48.58;;
8050;SDS011;4068;42.158;24.732;2022-10-19T17:43:01;100.50;;;44.90;;
8050;SDS011;4068;42.158;24.732;2022-10-19T17:45:26;83.88;;;39.78;;
8050;SDS011;4068;42.158;24.732;2022-10-19T17:47:52;84.30;;;39.63;;
8050;SDS011;4068;42.158;24.732;2022-10-19T17:50:17;85.32;;;38.00;;
8050;SDS011;4068;42.158;24.732;2022-10-19T17:52:43;78.20;;;35.15;;
8050;SDS011;4068;42.158;24.732;2022-10-19T17:55:08;74.60;;;32.17;;
8050;SDS011;4068;42.158;24.732;2022-10-19T17:57:34;73.32;;;28.58;;
8050;SDS011;4068;42.158;24.732;2022-10-19T18:00:00;60.00;;;28.50;;
8050;SDS011;4068;42.158;24.732;2022-10-19T18:02:25;54.80;;;26.33;;
8050;SDS011;4068;42.158;24.732;2022-10-19T18:04:51;65.53;;;26.67;;
8050;SDS011;4068;42.158;24.732;2022-10-19T18:07:16;54.33;;;24.95;;